createdAt,value
2018-12-30T00:00:24.385Z,4.80
2018-12-30T00:03:31.351Z,4.53
2018-12-30T00:06:40.167Z,5.00
2018-12-30T00:09:47.663Z,4.00
2018-12-30T00:12:56.145Z,5.30
2018-12-30T00:16:03.621Z,3.60
2018-12-30T00:19:10.797Z,4.17
2018-12-30T00:22:17.936Z,3.70
2018-12-30T00:25:25.076Z,3.40
2018-12-30T00:28:32.299Z,3.90
2018-12-30T00:31:39.585Z,4.03
2018-12-30T00:34:46.701Z,2.60
2018-12-30T00:37:53.719Z,3.20
2018-12-30T00:41:01.127Z,2.63
2018-12-30T00:44:08.139Z,2.33
2018-12-30T00:47:15.225Z,2.57
2018-12-30T00:50:22.316Z,2.50
2018-12-30T00:53:31.199Z,2.00
2018-12-30T00:56:38.162Z,1.77
2018-12-30T00:59:46.638Z,1.43
2018-12-30T01:02:53.995Z,1.27
2018-12-30T01:06:04.134Z,1.33
2018-12-30T01:09:10.470Z,1.37
2018-12-30T01:12:17.539Z,1.17
2018-12-30T01:15:24.709Z,1.00
2018-12-30T01:18:32.042Z,1.73
2018-12-30T01:21:39.041Z,0.90
2018-12-30T01:24:45.978Z,0.80
2018-12-30T01:27:53.087Z,0.80
2018-12-30T01:31:00.447Z,1.00
2018-12-30T01:34:10.321Z,0.90
2018-12-30T01:37:17.512Z,1.00
2018-12-30T01:40:24.587Z,0.97
2018-12-30T01:43:32.179Z,1.17
2018-12-30T01:46:39.215Z,1.07
2018-12-30T01:49:46.297Z,0.80
2018-12-30T01:52:53.405Z,0.63
2018-12-30T01:56:00.731Z,0.50
2018-12-30T01:59:07.856Z,0.90
2018-12-30T02:02:14.980Z,1.00
2018-12-30T02:05:22.016Z,0.97
2018-12-30T02:08:29.416Z,0.70
2018-12-30T02:11:36.580Z,0.60
2018-12-30T02:14:43.691Z,0.50
2018-12-30T02:17:50.794Z,0.87
2018-12-30T02:20:58.097Z,0.80
2018-12-30T02:24:05.171Z,0.50
2018-12-30T02:27:12.510Z,0.40
2018-12-30T02:30:19.562Z,0.53
2018-12-30T02:33:26.628Z,0.90
2018-12-30T02:36:33.635Z,0.60
2018-12-30T02:39:40.760Z,0.70
2018-12-30T02:42:49.153Z,0.50
2018-12-30T02:45:56.223Z,0.60
2018-12-30T02:49:03.617Z,0.60
2018-12-30T02:52:10.924Z,0.50
2018-12-30T02:55:18.288Z,0.70
2018-12-30T02:58:25.463Z,0.83
2018-12-30T03:01:33.244Z,0.30
2018-12-30T03:04:40.391Z,0.53
2018-12-30T03:07:47.437Z,0.57
2018-12-30T03:10:54.884Z,0.40
2018-12-30T03:14:02.158Z,0.30
2018-12-30T03:17:09.202Z,0.47
2018-12-30T03:20:16.298Z,0.47
2018-12-30T03:23:23.375Z,0.80
2018-12-30T03:26:30.418Z,0.50
2018-12-30T03:29:37.535Z,0.50
2018-12-30T03:32:44.625Z,0.40
2018-12-30T03:35:51.722Z,0.47
2018-12-30T03:39:00.380Z,0.50
2018-12-30T03:42:07.603Z,0.60
2018-12-30T03:45:14.638Z,0.50
2018-12-30T03:48:21.989Z,0.60
2018-12-30T03:51:30.649Z,0.53
2018-12-30T03:54:38.131Z,0.70
2018-12-30T03:57:45.163Z,1.23
2018-12-30T04:00:52.514Z,0.80
2018-12-30T04:04:00.823Z,1.07
2018-12-30T04:07:07.866Z,1.20
2018-12-30T04:10:15.191Z,1.03
2018-12-30T04:13:22.292Z,0.97
2018-12-30T04:16:29.425Z,1.03
2018-12-30T04:19:36.578Z,1.67
2018-12-30T04:22:43.591Z,1.63
2018-12-30T04:25:50.647Z,1.10
2018-12-30T04:28:57.719Z,1.27
2018-12-30T04:32:04.788Z,1.10
2018-12-30T04:35:11.978Z,1.10
2018-12-30T04:38:19.011Z,1.83
2018-12-30T04:41:26.120Z,2.13
2018-12-30T04:44:33.269Z,1.50
2018-12-30T04:47:40.374Z,1.40
2018-12-30T04:50:47.403Z,1.30
2018-12-30T04:53:54.491Z,1.77
2018-12-30T04:57:01.579Z,1.27
2018-12-30T05:00:09.840Z,1.20
2018-12-30T05:03:16.883Z,1.43
2018-12-30T05:06:23.927Z,1.87
2018-12-30T05:09:30.963Z,1.37
2018-12-30T05:12:38.055Z,1.30
2018-12-30T05:15:45.445Z,1.70
2018-12-30T05:18:52.584Z,1.57
2018-12-30T05:21:59.648Z,2.10
2018-12-30T05:25:06.793Z,1.87
2018-12-30T05:28:14.137Z,1.63
2018-12-30T05:31:21.450Z,1.40
2018-12-30T05:34:28.837Z,1.97
2018-12-30T05:37:35.729Z,1.27
2018-12-30T05:40:43.247Z,1.70
2018-12-30T05:43:50.752Z,1.33
2018-12-30T05:46:57.962Z,1.83
2018-12-30T05:50:05.279Z,0.97
2018-12-30T05:53:12.500Z,1.73
2018-12-30T05:56:19.853Z,1.40
2018-12-30T05:59:26.783Z,1.40
2018-12-30T06:02:33.883Z,2.00
2018-12-30T06:05:40.809Z,1.57
2018-12-30T06:08:47.845Z,1.97
2018-12-30T06:11:54.840Z,1.23
2018-12-30T06:15:01.906Z,1.30
2018-12-30T06:18:09.129Z,0.90
2018-12-30T06:21:16.251Z,1.97
2018-12-30T06:24:24.172Z,2.30
2018-12-30T06:27:31.294Z,2.00
2018-12-30T06:30:38.337Z,1.17
2018-12-30T06:33:45.422Z,1.83
2018-12-30T06:36:52.524Z,1.90
2018-12-30T06:39:59.790Z,1.03
2018-12-30T06:43:07.150Z,2.20
2018-12-30T06:46:14.415Z,1.73
2018-12-30T06:49:21.562Z,1.87
2018-12-30T06:52:30.097Z,1.70
2018-12-30T06:55:37.435Z,1.57
2018-12-30T06:58:44.773Z,1.80
2018-12-30T07:01:51.960Z,1.77
2018-12-30T07:05:00.291Z,1.63
2018-12-30T07:08:07.606Z,1.63
2018-12-30T07:11:14.720Z,1.37
2018-12-30T07:14:21.833Z,1.80
2018-12-30T07:17:28.916Z,0.80
2018-12-30T07:20:36.132Z,2.40
2018-12-30T07:23:43.259Z,2.03
2018-12-30T07:26:50.314Z,1.33
2018-12-30T07:29:57.450Z,1.40
2018-12-30T07:33:05.000Z,1.60
2018-12-30T07:36:12.111Z,2.60
2018-12-30T07:39:19.425Z,1.20
2018-12-30T07:42:26.530Z,1.00
2018-12-30T07:45:33.792Z,1.53
2018-12-30T07:48:41.104Z,1.30
2018-12-30T07:51:48.335Z,1.60
2018-12-30T07:54:55.654Z,0.97
2018-12-30T07:58:02.948Z,1.47
2018-12-30T08:01:11.443Z,1.23
2018-12-30T08:04:18.778Z,1.10
2018-12-30T08:07:25.852Z,1.00
2018-12-30T08:10:32.994Z,0.93
2018-12-30T08:13:40.082Z,1.27
2018-12-30T08:16:47.197Z,1.07
2018-12-30T08:19:54.568Z,1.43
2018-12-30T08:23:01.736Z,1.10
2018-12-30T08:26:09.237Z,1.10
2018-12-30T08:29:16.323Z,1.30
2018-12-30T08:32:23.466Z,2.20
2018-12-30T08:35:30.883Z,1.83
2018-12-30T08:38:38.066Z,1.10
2018-12-30T08:41:45.298Z,1.47
2018-12-30T08:44:52.388Z,1.83
2018-12-30T08:47:59.687Z,0.60
2018-12-30T08:51:06.768Z,2.40
2018-12-30T08:54:15.582Z,1.00
2018-12-30T08:57:23.383Z,1.33
2018-12-30T09:00:30.557Z,2.50
2018-12-30T09:03:37.703Z,1.17
2018-12-30T09:06:45.034Z,1.30
2018-12-30T09:09:52.161Z,2.17
2018-12-30T09:12:59.250Z,1.30
2018-12-30T09:16:06.329Z,1.40
2018-12-30T09:19:13.447Z,1.33
2018-12-30T09:22:22.096Z,1.20
2018-12-30T09:25:29.172Z,1.53
2018-12-30T09:28:36.209Z,1.10
2018-12-30T09:31:43.395Z,1.30
2018-12-30T09:34:50.414Z,1.67
2018-12-30T09:37:57.610Z,1.00
2018-12-30T09:41:04.747Z,1.30
2018-12-30T09:44:12.011Z,1.10
2018-12-30T09:47:19.108Z,1.27
2018-12-30T09:50:26.389Z,0.87
2018-12-30T09:53:33.889Z,2.27
2018-12-30T09:56:41.036Z,0.93
2018-12-30T09:59:48.198Z,1.03
2018-12-30T10:02:55.275Z,1.63
2018-12-30T10:06:02.359Z,1.27
2018-12-30T10:09:09.538Z,1.03
2018-12-30T10:12:16.622Z,1.30
2018-12-30T10:15:23.736Z,1.17
2018-12-30T10:18:30.841Z,1.07
2018-12-30T10:21:37.897Z,0.70
2018-12-30T10:24:45.016Z,1.40
2018-12-30T10:27:52.411Z,0.77
2018-12-30T10:30:59.700Z,0.77
2018-12-30T10:34:06.863Z,1.03
2018-12-30T10:37:14.049Z,0.73
2018-12-30T10:40:21.237Z,1.37
2018-12-30T10:43:28.966Z,1.10
2018-12-30T10:46:36.614Z,0.97
2018-12-30T10:49:43.821Z,0.83
2018-12-30T10:52:51.087Z,1.10
2018-12-30T10:55:58.224Z,1.37
2018-12-30T10:59:05.335Z,0.80
2018-12-30T11:02:12.705Z,1.23
2018-12-30T11:05:20.237Z,1.50
2018-12-30T11:08:27.379Z,1.87
2018-12-30T11:11:34.860Z,1.77
2018-12-30T11:14:42.014Z,1.80
2018-12-30T11:17:49.089Z,1.20
2018-12-30T11:20:56.243Z,1.43
2018-12-30T11:24:08.521Z,1.60
2018-12-30T11:27:15.295Z,1.57
2018-12-30T11:30:22.547Z,1.70
2018-12-30T11:33:29.791Z,1.80
2018-12-30T11:36:36.978Z,1.43
2018-12-30T11:39:44.252Z,1.37
2018-12-30T11:42:51.407Z,1.40
2018-12-30T11:45:58.527Z,1.47
2018-12-30T11:49:05.758Z,1.50
2018-12-30T11:52:13.137Z,1.07
2018-12-30T11:55:20.293Z,1.57
2018-12-30T11:58:27.427Z,1.57
2018-12-30T12:01:34.807Z,1.23
2018-12-30T12:04:42.364Z,1.10
2018-12-30T12:07:49.768Z,1.63
2018-12-30T12:10:57.061Z,1.43
2018-12-30T12:14:04.234Z,1.27
2018-12-30T12:17:11.462Z,1.53
2018-12-30T12:20:20.694Z,1.90
2018-12-30T12:23:28.027Z,2.70
2018-12-30T12:26:35.418Z,1.20
2018-12-30T12:29:42.891Z,1.60
2018-12-30T12:32:52.040Z,1.63
2018-12-30T12:35:59.416Z,1.50
2018-12-30T12:39:07.829Z,1.27
2018-12-30T12:42:14.947Z,1.87
2018-12-30T12:45:23.287Z,1.40
2018-12-30T12:48:30.375Z,1.50
2018-12-30T12:51:40.524Z,1.40
2018-12-30T12:54:47.623Z,1.43
2018-12-30T12:57:57.107Z,1.43
2018-12-30T13:01:04.345Z,1.23
2018-12-30T13:04:11.790Z,1.40
2018-12-30T13:07:18.968Z,1.40
2018-12-30T13:10:26.031Z,1.67
2018-12-30T13:13:33.318Z,1.30
2018-12-30T13:16:42.445Z,0.90
2018-12-30T13:19:49.978Z,1.37
2018-12-30T13:22:57.161Z,2.60
2018-12-30T13:26:04.766Z,1.80
2018-12-30T13:29:14.050Z,1.50
2018-12-30T13:32:21.402Z,0.93
2018-12-30T13:35:29.132Z,1.47
2018-12-30T13:38:36.162Z,1.50
2018-12-30T13:41:43.815Z,1.50
2018-12-30T13:44:55.228Z,1.10
2018-12-30T13:48:06.581Z,1.20
2018-12-30T13:51:14.883Z,1.10
2018-12-30T13:54:25.304Z,1.47
2018-12-30T13:57:32.635Z,0.70
2018-12-30T14:00:40.096Z,1.57
2018-12-30T14:03:47.330Z,1.27
2018-12-30T14:06:57.476Z,1.30
2018-12-30T14:10:05.657Z,1.30
2018-12-30T14:13:12.876Z,1.13
2018-12-30T14:16:19.994Z,1.20
2018-12-30T14:19:31.894Z,1.73
2018-12-30T14:22:43.774Z,1.60
2018-12-30T14:25:51.196Z,1.03
2018-12-30T14:28:58.496Z,1.30
2018-12-30T14:32:05.774Z,1.13
2018-12-30T14:35:17.808Z,1.33
2018-12-30T14:38:25.548Z,1.03
2018-12-30T14:41:35.766Z,1.27
2018-12-30T14:44:42.980Z,2.60
2018-12-30T14:47:54.117Z,1.57
2018-12-30T14:51:05.601Z,1.30
2018-12-30T14:54:12.823Z,1.20
2018-12-30T14:57:20.168Z,1.30
2018-12-30T15:00:27.161Z,1.57
2018-12-30T15:03:34.550Z,1.57
2018-12-30T15:06:42.690Z,1.50
2018-12-30T15:09:49.878Z,1.67
2018-12-30T15:13:06.755Z,1.80
2018-12-30T15:16:20.392Z,1.87
2018-12-30T15:19:27.933Z,1.50
2018-12-30T15:22:35.479Z,1.23
2018-12-30T15:25:48.344Z,1.50
2018-12-30T15:28:56.436Z,1.90
2018-12-30T15:32:06.256Z,1.60
2018-12-30T15:35:13.347Z,1.73
2018-12-30T15:38:21.436Z,1.63
2018-12-30T15:41:28.912Z,1.80
2018-12-30T15:44:37.921Z,3.33
2018-12-30T15:47:47.433Z,2.63
2018-12-30T15:50:55.044Z,1.63
2018-12-30T15:54:02.518Z,1.80
2018-12-30T15:57:10.422Z,1.53
2018-12-30T16:00:17.553Z,2.10
2018-12-30T16:03:24.734Z,2.63
2018-12-30T16:06:32.421Z,1.63
2018-12-30T16:09:42.058Z,2.07
2018-12-30T16:12:49.133Z,1.60
2018-12-30T16:15:56.445Z,1.60
2018-12-30T16:19:03.620Z,1.70
2018-12-30T16:22:12.093Z,1.63
2018-12-30T16:25:26.961Z,1.93
2018-12-30T16:28:28.606Z,2.13
2018-12-30T16:31:35.964Z,1.90
2018-12-30T16:34:43.246Z,1.23
2018-12-30T16:37:56.560Z,1.73
2018-12-30T16:41:05.225Z,1.30
2018-12-30T16:44:12.427Z,1.70
2018-12-30T16:47:22.157Z,1.97
2018-12-30T16:50:35.671Z,2.07
2018-12-30T16:53:43.776Z,2.03
2018-12-30T16:56:51.849Z,1.50
2018-12-30T17:00:01.838Z,1.73
2018-12-30T17:03:10.656Z,1.93
2018-12-30T17:06:18.409Z,1.87
2018-12-30T17:09:25.823Z,2.47
2018-12-30T17:12:33.668Z,2.13
2018-12-30T17:15:43.413Z,2.60
2018-12-30T17:18:55.952Z,2.73
2018-12-30T17:21:59.874Z,2.57
2018-12-30T17:25:07.880Z,2.17
2018-12-30T17:28:15.095Z,1.80
2018-12-30T17:31:23.553Z,2.20
2018-12-30T17:34:32.511Z,2.50
2018-12-30T17:37:39.720Z,1.90
2018-12-30T17:40:46.967Z,2.20
2018-12-30T17:43:54.798Z,2.20
2018-12-30T17:47:03.785Z,3.00
2018-12-30T17:50:11.265Z,2.70
2018-12-30T17:53:19.088Z,2.90
2018-12-30T17:56:26.905Z,2.20
2018-12-30T17:59:34.443Z,2.50
2018-12-30T18:02:44.823Z,2.47
2018-12-30T18:05:54.757Z,2.07
2018-12-30T18:09:02.484Z,4.30
2018-12-30T18:12:11.518Z,3.03
2018-12-30T18:15:19.248Z,2.40
2018-12-30T18:18:28.211Z,2.80
2018-12-30T18:21:36.671Z,2.90
2018-12-30T18:24:43.586Z,2.83
2018-12-30T18:27:51.407Z,3.33
2018-12-30T18:30:58.939Z,2.87
2018-12-30T18:34:06.473Z,3.40
2018-12-30T18:37:13.774Z,6.53
2018-12-30T18:40:21.441Z,8.67
2018-12-30T18:43:28.599Z,3.33
2018-12-30T18:46:36.553Z,3.27
2018-12-30T18:49:44.202Z,2.70
2018-12-30T18:52:51.497Z,3.60
2018-12-30T18:56:06.502Z,3.03
2018-12-30T18:59:09.372Z,3.80
2018-12-30T19:02:17.716Z,4.67
2018-12-30T19:05:24.878Z,3.50
2018-12-30T19:08:31.939Z,3.63
2018-12-30T19:11:42.473Z,3.87
2018-12-30T19:14:49.906Z,4.07
2018-12-30T19:17:57.590Z,3.93
2018-12-30T19:21:05.235Z,3.70
2018-12-30T19:24:15.642Z,3.80
2018-12-30T19:27:28.716Z,4.63
2018-12-30T19:30:39.366Z,4.17
2018-12-30T19:33:51.516Z,3.93
2018-12-30T19:37:00.888Z,4.53
2018-12-30T19:40:10.933Z,5.27
2018-12-30T19:43:19.708Z,4.50
2018-12-30T19:46:27.648Z,4.90
2018-12-30T19:49:36.063Z,4.50
2018-12-30T19:52:43.005Z,4.40
2018-12-30T19:55:51.214Z,5.27
2018-12-30T19:58:58.029Z,4.80
2018-12-30T20:02:05.689Z,5.30
2018-12-30T20:05:14.475Z,5.57
2018-12-30T20:08:23.351Z,5.47
2018-12-30T20:11:34.102Z,5.23
2018-12-30T20:14:43.452Z,5.80
2018-12-30T20:17:51.271Z,5.60
2018-12-30T20:20:58.411Z,5.70
2018-12-30T20:24:06.011Z,4.90
2018-12-30T20:27:13.284Z,5.03
2018-12-30T20:30:22.071Z,5.50
2018-12-30T20:33:29.161Z,6.10
2018-12-30T20:36:36.741Z,6.33
2018-12-30T20:39:45.357Z,6.00
2018-12-30T20:42:52.882Z,5.30
2018-12-30T20:46:00.024Z,5.13
2018-12-30T20:49:07.110Z,4.83
2018-12-30T20:52:16.553Z,5.60
2018-12-30T20:55:24.207Z,5.33
2018-12-30T20:58:31.388Z,5.17
2018-12-30T21:01:38.635Z,5.80
2018-12-30T21:04:46.919Z,6.23
2018-12-30T21:07:57.393Z,6.77
2018-12-30T21:11:04.448Z,5.97
2018-12-30T21:14:11.804Z,6.50
2018-12-30T21:17:19.787Z,6.17
2018-12-30T21:20:27.292Z,6.13
2018-12-30T21:23:34.881Z,6.10
2018-12-30T21:26:45.473Z,6.57
2018-12-30T21:29:51.449Z,5.37
2018-12-30T21:32:58.897Z,6.10
2018-12-30T21:36:05.879Z,6.30
2018-12-30T21:39:12.992Z,6.77
2018-12-30T21:42:20.346Z,6.33
2018-12-30T21:45:27.873Z,7.00
2018-12-30T21:48:34.981Z,6.30
2018-12-30T21:51:42.366Z,6.57
2018-12-30T21:54:49.782Z,6.07
2018-12-30T21:57:58.338Z,6.07
2018-12-30T22:01:05.213Z,6.43
2018-12-30T22:04:12.176Z,7.10
2018-12-30T22:07:20.618Z,6.93
2018-12-30T22:10:28.807Z,6.83
2018-12-30T22:13:36.302Z,6.30
2018-12-30T22:16:43.355Z,7.10
2018-12-30T22:19:56.019Z,6.93
2018-12-30T22:23:03.333Z,7.40
2018-12-30T22:26:10.935Z,7.07
2018-12-30T22:29:17.709Z,6.90
2018-12-30T22:32:27.903Z,8.00
2018-12-30T22:35:35.023Z,7.47
2018-12-30T22:38:42.733Z,6.27
2018-12-30T22:41:50.352Z,6.97
2018-12-30T22:44:57.205Z,6.03
2018-12-30T22:48:06.911Z,6.50
2018-12-30T22:51:17.597Z,6.30
2018-12-30T22:54:25.032Z,5.80
2018-12-30T22:57:32.074Z,6.20
2018-12-30T23:00:57.335Z,6.07
2018-12-30T23:04:05.140Z,6.53
2018-12-30T23:07:12.446Z,5.27
2018-12-30T23:10:19.555Z,6.27
2018-12-30T23:13:26.847Z,5.90
2018-12-30T23:16:33.706Z,5.67
2018-12-30T23:19:45.911Z,6.13
2018-12-30T23:22:52.727Z,6.23
2018-12-30T23:26:00.419Z,6.20
2018-12-30T23:29:08.139Z,5.93
2018-12-30T23:32:15.023Z,6.00
2018-12-30T23:35:22.347Z,5.83
2018-12-30T23:38:33.461Z,6.03
2018-12-30T23:41:44.356Z,6.07
2018-12-30T23:44:52.824Z,5.47
2018-12-30T23:47:59.842Z,5.50
2018-12-30T23:51:07.617Z,12.83
2018-12-30T23:54:17.374Z,6.30
2018-12-30T23:57:24.307Z,5.63
